createdAt,value
2018-12-16T00:00:51.640Z,67.40
2018-12-16T00:03:22.680Z,67.40
2018-12-16T00:05:53.799Z,67.10
2018-12-16T00:08:22.936Z,67.20
2018-12-16T00:10:51.990Z,67.20
2018-12-16T00:13:21.075Z,67.10
2018-12-16T00:15:50.115Z,67.30
2018-12-16T00:18:19.140Z,67.30
2018-12-16T00:20:48.237Z,67.60
2018-12-16T00:23:17.231Z,67.50
2018-12-16T00:25:46.293Z,67.70
2018-12-16T00:28:15.315Z,67.60
2018-12-16T00:30:44.364Z,67.90
2018-12-16T00:33:13.456Z,67.60
2018-12-16T00:35:42.472Z,67.90
2018-12-16T00:38:11.532Z,68.50
2018-12-16T00:40:40.525Z,68.70
2018-12-16T00:43:09.523Z,68.90
2018-12-16T00:45:38.515Z,68.30
2018-12-16T00:48:07.653Z,68.60
2018-12-16T00:50:37.369Z,68.50
2018-12-16T00:53:06.358Z,68.80
2018-12-16T00:55:35.373Z,68.80
2018-12-16T00:58:04.667Z,68.70
2018-12-16T01:00:34.088Z,68.90
2018-12-16T01:03:03.240Z,69.40
2018-12-16T01:05:32.412Z,69.10
2018-12-16T01:08:01.545Z,69.20
2018-12-16T01:10:30.954Z,69.60
2018-12-16T01:12:59.993Z,69.90
2018-12-16T01:15:29.065Z,69.50
2018-12-16T01:17:58.203Z,69.30
2018-12-16T01:20:27.299Z,69.50
2018-12-16T01:22:56.349Z,70.50
2018-12-16T01:25:25.377Z,70.60
2018-12-16T01:27:54.434Z,70.10
2018-12-16T01:30:23.421Z,70.30
2018-12-16T01:32:52.494Z,70.70
2018-12-16T01:35:22.210Z,70.60
2018-12-16T01:37:51.238Z,70.60
2018-12-16T01:40:20.217Z,70.70
2018-12-16T01:42:49.206Z,70.60
2018-12-16T01:45:18.204Z,71.10
2018-12-16T01:47:47.257Z,71.20
2018-12-16T01:50:16.255Z,71.00
2018-12-16T01:52:50.197Z,71.90
2018-12-16T01:55:16.415Z,71.50
2018-12-16T01:57:45.452Z,71.40
2018-12-16T02:00:14.614Z,71.50
2018-12-16T02:02:45.082Z,72.00
2018-12-16T02:05:14.274Z,72.20
2018-12-16T02:07:43.340Z,71.70
2018-12-16T02:10:12.540Z,71.80
2018-12-16T02:12:41.747Z,71.40
2018-12-16T02:15:11.027Z,71.60
2018-12-16T02:17:40.228Z,71.60
2018-12-16T02:20:09.428Z,71.30
2018-12-16T02:22:38.514Z,71.50
2018-12-16T02:25:08.221Z,71.30
2018-12-16T02:27:37.257Z,71.30
2018-12-16T02:30:08.604Z,71.30
2018-12-16T02:32:38.418Z,71.40
2018-12-16T02:35:07.575Z,71.20
2018-12-16T02:37:36.684Z,71.70
2018-12-16T02:40:05.988Z,71.40
2018-12-16T02:42:35.115Z,71.60
2018-12-16T02:45:04.535Z,71.60
2018-12-16T02:47:33.677Z,72.50
2018-12-16T02:50:02.823Z,71.70
2018-12-16T02:52:31.831Z,71.80
2018-12-16T02:55:00.931Z,71.80
2018-12-16T02:57:29.954Z,71.80
2018-12-16T02:59:59.140Z,71.90
2018-12-16T03:02:28.120Z,72.00
2018-12-16T03:04:57.197Z,72.00
2018-12-16T03:07:26.192Z,71.80
2018-12-16T03:09:55.264Z,71.80
2018-12-16T03:12:24.381Z,71.80
2018-12-16T03:14:53.437Z,71.80
2018-12-16T03:17:22.529Z,71.80
2018-12-16T03:19:51.636Z,71.70
2018-12-16T03:22:20.665Z,71.60
2018-12-16T03:24:49.669Z,71.50
2018-12-16T03:27:18.690Z,71.50
2018-12-16T03:29:48.825Z,71.40
2018-12-16T03:32:17.862Z,71.50
2018-12-16T03:34:46.938Z,71.20
2018-12-16T03:37:15.921Z,71.20
2018-12-16T03:39:44.968Z,71.10
2018-12-16T03:42:14.343Z,71.10
2018-12-16T03:44:43.320Z,71.10
2018-12-16T03:47:12.294Z,71.20
2018-12-16T03:49:41.392Z,71.00
2018-12-16T03:52:10.425Z,71.00
2018-12-16T03:54:39.430Z,71.00
2018-12-16T03:57:08.480Z,70.90
2018-12-16T03:59:37.568Z,70.90
2018-12-16T04:02:06.565Z,70.80
2018-12-16T04:04:35.599Z,70.90
2018-12-16T04:07:04.660Z,70.90
2018-12-16T04:09:33.763Z,70.70
2018-12-16T04:12:03.052Z,70.80
2018-12-16T04:14:32.111Z,70.70
2018-12-16T04:17:01.167Z,70.70
2018-12-16T04:19:30.138Z,70.70
2018-12-16T04:21:59.226Z,71.00
2018-12-16T04:24:28.217Z,71.00
2018-12-16T04:26:57.325Z,71.10
2018-12-16T04:29:26.382Z,71.20
2018-12-16T04:31:55.356Z,71.10
2018-12-16T04:34:24.409Z,71.30
2018-12-16T04:36:53.366Z,71.20
2018-12-16T04:39:22.384Z,71.40
2018-12-16T04:41:51.698Z,71.40
2018-12-16T04:44:20.689Z,71.30
2018-12-16T04:46:50.845Z,71.40
2018-12-16T04:49:19.908Z,71.50
2018-12-16T04:51:48.941Z,71.70
2018-12-16T04:54:18.051Z,71.80
2018-12-16T04:56:47.068Z,71.70
2018-12-16T04:59:16.207Z,71.90
2018-12-16T05:01:45.262Z,71.80
2018-12-16T05:04:14.425Z,72.60
2018-12-16T05:06:43.513Z,72.00
2018-12-16T05:09:12.606Z,71.90
2018-12-16T05:11:41.678Z,71.80
2018-12-16T05:14:10.731Z,71.90
2018-12-16T05:16:39.873Z,71.80
2018-12-16T05:19:08.899Z,71.70
2018-12-16T05:21:38.637Z,71.80
2018-12-16T05:24:07.635Z,71.60
2018-12-16T05:26:36.760Z,71.60
2018-12-16T05:29:05.730Z,71.60
2018-12-16T05:31:34.715Z,71.50
2018-12-16T05:34:03.897Z,71.50
2018-12-16T05:36:33.239Z,71.50
2018-12-16T05:39:02.252Z,71.50
2018-12-16T05:41:33.277Z,71.60
2018-12-16T05:44:02.349Z,71.60
2018-12-16T05:46:32.564Z,72.30
2018-12-16T05:49:01.799Z,71.60
2018-12-16T05:51:30.867Z,71.50
2018-12-16T05:53:59.858Z,71.60
2018-12-16T05:56:28.906Z,71.40
2018-12-16T05:58:57.920Z,71.50
2018-12-16T06:01:26.971Z,71.50
2018-12-16T06:03:56.000Z,71.50
2018-12-16T06:06:25.010Z,71.40
2018-12-16T06:08:54.025Z,71.50
2018-12-16T06:11:23.040Z,71.40
2018-12-16T06:13:52.040Z,71.40
2018-12-16T06:16:21.055Z,72.10
2018-12-16T06:18:50.092Z,71.60
2018-12-16T06:21:19.186Z,71.50
2018-12-16T06:23:55.381Z,71.50
2018-12-16T06:26:19.917Z,71.70
2018-12-16T06:28:48.942Z,71.50
2018-12-16T06:31:17.922Z,71.60
2018-12-16T06:33:47.412Z,71.60
2018-12-16T06:36:16.462Z,71.60
2018-12-16T06:38:45.537Z,71.60
2018-12-16T06:41:14.542Z,71.60
2018-12-16T06:43:43.601Z,71.60
2018-12-16T06:46:12.694Z,71.60
2018-12-16T06:48:42.042Z,71.60
2018-12-16T06:51:11.052Z,71.50
2018-12-16T06:53:40.025Z,71.50
2018-12-16T06:56:09.180Z,71.40
2018-12-16T06:58:38.213Z,71.40
2018-12-16T07:01:07.273Z,71.40
2018-12-16T07:03:36.378Z,71.50
2018-12-16T07:06:05.467Z,71.40
2018-12-16T07:08:34.493Z,71.30
2018-12-16T07:11:03.638Z,71.40
2018-12-16T07:13:32.739Z,71.60
2018-12-16T07:16:01.815Z,71.40
2018-12-16T07:18:30.971Z,71.40
2018-12-16T07:21:00.041Z,71.40
2018-12-16T07:23:29.052Z,72.00
2018-12-16T07:25:58.074Z,71.00
2018-12-16T07:28:27.240Z,71.30
2018-12-16T07:30:56.331Z,71.20
2018-12-16T07:33:25.417Z,71.10
2018-12-16T07:35:54.526Z,71.20
2018-12-16T07:38:23.644Z,71.20
2018-12-16T07:40:52.779Z,71.10
2018-12-16T07:43:21.976Z,71.60
2018-12-16T07:45:51.065Z,71.10
2018-12-16T07:48:20.475Z,71.00
2018-12-16T07:50:49.615Z,71.10
2018-12-16T07:53:18.796Z,71.10
2018-12-16T07:55:47.957Z,71.20
2018-12-16T07:58:17.034Z,71.00
2018-12-16T08:00:46.162Z,70.80
2018-12-16T08:03:15.222Z,70.90
2018-12-16T08:05:44.621Z,70.80
2018-12-16T08:08:13.627Z,71.00
2018-12-16T08:10:42.646Z,71.00
2018-12-16T08:13:11.832Z,70.60
2018-12-16T08:15:42.374Z,70.50
2018-12-16T08:18:11.574Z,70.40
2018-12-16T08:20:40.620Z,70.50
2018-12-16T08:23:09.636Z,70.40
2018-12-16T08:25:38.599Z,70.20
2018-12-16T08:28:07.740Z,69.80
2018-12-16T08:30:36.677Z,69.30
2018-12-16T08:33:05.759Z,69.50
2018-12-16T08:35:35.471Z,69.80
2018-12-16T08:38:04.567Z,69.60
2018-12-16T08:40:33.558Z,69.50
2018-12-16T08:43:02.618Z,68.90
2018-12-16T08:45:32.124Z,69.10
2018-12-16T08:48:01.188Z,69.30
2018-12-16T08:50:30.233Z,69.20
2018-12-16T08:52:59.823Z,69.40
2018-12-16T08:55:28.850Z,69.40
2018-12-16T08:57:57.905Z,69.30
2018-12-16T09:00:27.003Z,69.30
2018-12-16T09:02:56.001Z,69.30
2018-12-16T09:05:25.050Z,69.50
2018-12-16T09:07:54.088Z,69.30
2018-12-16T09:10:23.154Z,69.40
2018-12-16T09:12:52.190Z,69.50
2018-12-16T09:15:21.351Z,69.40
2018-12-16T09:17:50.370Z,69.10
2018-12-16T09:20:19.452Z,68.80
2018-12-16T09:22:48.506Z,69.10
2018-12-16T09:25:17.521Z,69.30
2018-12-16T09:27:46.516Z,70.00
2018-12-16T09:30:15.561Z,69.10
2018-12-16T09:32:44.585Z,68.90
2018-12-16T09:35:14.408Z,69.10
2018-12-16T09:37:43.482Z,69.10
2018-12-16T09:40:12.529Z,69.30
2018-12-16T09:42:41.584Z,69.30
2018-12-16T09:45:10.607Z,69.30
2018-12-16T09:47:39.949Z,69.30
2018-12-16T09:50:09.096Z,69.30
2018-12-16T09:52:38.191Z,69.40
2018-12-16T09:55:07.829Z,69.60
2018-12-16T09:57:36.868Z,69.70
2018-12-16T10:00:07.881Z,69.80
2018-12-16T10:02:37.776Z,70.00
2018-12-16T10:05:07.144Z,70.10
2018-12-16T10:07:36.185Z,70.20
2018-12-16T10:10:07.585Z,70.20
2018-12-16T10:12:36.577Z,70.00
2018-12-16T10:15:06.545Z,69.90
2018-12-16T10:17:35.542Z,70.10
2018-12-16T10:20:05.895Z,69.90
2018-12-16T10:22:34.966Z,69.90
2018-12-16T10:25:04.298Z,70.10
2018-12-16T10:27:33.365Z,70.30
2018-12-16T10:30:02.331Z,70.50
2018-12-16T10:32:32.482Z,70.60
2018-12-16T10:35:03.042Z,70.60
2018-12-16T10:37:32.533Z,70.90
2018-12-16T10:40:01.624Z,71.00
2018-12-16T10:42:30.874Z,71.00
2018-12-16T10:44:59.850Z,71.30
2018-12-16T10:47:28.987Z,71.40
2018-12-16T10:49:58.094Z,71.70
2018-12-16T10:52:28.122Z,71.90
2018-12-16T10:54:58.587Z,71.70
2018-12-16T10:57:28.065Z,71.90
2018-12-16T10:59:57.187Z,72.00
2018-12-16T11:02:26.235Z,72.10
2018-12-16T11:04:56.260Z,72.10
2018-12-16T11:07:25.272Z,72.10
2018-12-16T11:09:54.436Z,72.30
2018-12-16T11:12:23.754Z,72.40
2018-12-16T11:14:52.808Z,72.50
2018-12-16T11:17:21.903Z,72.50
2018-12-16T11:19:50.936Z,72.50
2018-12-16T11:22:20.021Z,72.70
2018-12-16T11:24:48.980Z,73.00
2018-12-16T11:27:18.046Z,72.60
2018-12-16T11:29:47.034Z,72.60
2018-12-16T11:32:16.082Z,72.60
2018-12-16T11:34:46.126Z,72.70
2018-12-16T11:37:15.156Z,72.70
2018-12-16T11:39:44.137Z,72.70
2018-12-16T11:42:13.209Z,72.70
2018-12-16T11:44:42.246Z,72.80
2018-12-16T11:47:11.262Z,73.00
2018-12-16T11:49:40.284Z,73.20
2018-12-16T11:52:09.250Z,74.00
2018-12-16T11:54:38.226Z,73.40
2018-12-16T11:57:07.227Z,73.70
2018-12-16T11:59:36.240Z,73.50
2018-12-16T12:02:05.541Z,73.70
2018-12-16T12:04:36.554Z,73.90
2018-12-16T12:07:05.574Z,74.10
2018-12-16T12:09:34.542Z,74.40
2018-12-16T12:12:04.164Z,74.30
2018-12-16T12:14:33.364Z,74.70
2018-12-16T12:17:02.390Z,74.70
2018-12-16T12:19:38.628Z,75.00
2018-12-16T12:22:07.887Z,74.90
2018-12-16T12:24:37.146Z,74.90
2018-12-16T12:27:06.202Z,75.00
2018-12-16T12:29:35.158Z,75.00
2018-12-16T12:32:04.178Z,75.00
2018-12-16T12:34:33.287Z,74.80
2018-12-16T12:37:02.379Z,75.60
2018-12-16T12:39:31.450Z,74.90
2018-12-16T12:42:00.443Z,74.90
2018-12-16T12:44:29.591Z,74.90
2018-12-16T12:46:58.570Z,75.10
2018-12-16T12:49:27.565Z,75.00
2018-12-16T12:51:56.546Z,75.10
2018-12-16T12:54:25.525Z,75.10
2018-12-16T12:56:54.600Z,75.10
2018-12-16T12:59:23.664Z,74.90
2018-12-16T13:01:52.736Z,74.80
2018-12-16T13:04:21.908Z,74.70
2018-12-16T13:06:50.934Z,74.50
2018-12-16T13:09:19.893Z,74.70
2018-12-16T13:11:48.896Z,74.70
2018-12-16T13:14:17.977Z,74.90
2018-12-16T13:16:47.132Z,75.20
2018-12-16T13:19:16.151Z,75.10
2018-12-16T13:21:45.120Z,75.10
2018-12-16T13:24:14.161Z,75.00
2018-12-16T13:26:43.128Z,74.80
2018-12-16T13:29:12.116Z,74.70
2018-12-16T13:31:41.184Z,74.50
2018-12-16T13:34:10.200Z,74.60
2018-12-16T13:36:39.280Z,74.80
2018-12-16T13:39:08.540Z,75.00
2018-12-16T13:41:37.891Z,76.00
2018-12-16T13:44:06.904Z,75.20
2018-12-16T13:46:36.319Z,75.20
2018-12-16T13:49:05.290Z,75.30
2018-12-16T13:51:34.283Z,75.30
2018-12-16T13:54:03.348Z,75.40
2018-12-16T13:56:32.434Z,75.60
2018-12-16T13:59:01.564Z,76.30
2018-12-16T14:01:30.607Z,75.60
2018-12-16T14:03:59.694Z,75.70
2018-12-16T14:06:28.714Z,75.70
2018-12-16T14:08:58.047Z,75.80
2018-12-16T14:11:27.054Z,76.00
2018-12-16T14:13:56.044Z,76.00
2018-12-16T14:16:25.160Z,76.00
2018-12-16T14:18:54.138Z,75.90
2018-12-16T14:21:23.193Z,76.00
2018-12-16T14:23:53.517Z,76.10
2018-12-16T14:26:22.544Z,76.10
2018-12-16T14:28:51.603Z,76.10
2018-12-16T14:31:20.539Z,76.10
2018-12-16T14:33:49.555Z,76.20
2018-12-16T14:36:18.653Z,76.10
2018-12-16T14:38:47.584Z,76.20
2018-12-16T14:41:16.551Z,76.40
2018-12-16T14:43:45.564Z,76.40
2018-12-16T14:46:14.567Z,76.50
2018-12-16T14:48:43.557Z,76.40
2018-12-16T14:51:12.576Z,76.40
2018-12-16T14:53:41.671Z,76.40
2018-12-16T14:56:10.750Z,76.50
2018-12-16T14:58:39.803Z,76.50
2018-12-16T15:01:08.856Z,76.90
2018-12-16T15:03:37.898Z,77.20
2018-12-16T15:06:06.926Z,77.40
2018-12-16T15:08:36.040Z,77.50
2018-12-16T15:11:06.186Z,77.70
2018-12-16T15:13:35.439Z,77.80
2018-12-16T15:16:04.530Z,77.90
2018-12-16T15:18:33.498Z,78.10
2018-12-16T15:21:02.538Z,78.20
2018-12-16T15:23:31.573Z,78.40
2018-12-16T15:26:02.162Z,78.50
2018-12-16T15:28:31.470Z,78.60
2018-12-16T15:31:00.443Z,78.60
2018-12-16T15:33:29.648Z,78.10
2018-12-16T15:35:58.651Z,78.70
2018-12-16T15:38:27.700Z,78.70
2018-12-16T15:40:56.706Z,78.70
2018-12-16T15:43:25.805Z,78.70
2018-12-16T15:46:01.377Z,78.70
2018-12-16T15:48:30.386Z,78.80
2018-12-16T15:50:59.484Z,78.80
2018-12-16T15:53:28.774Z,78.90
2018-12-16T15:55:57.933Z,79.00
2018-12-16T15:58:26.943Z,79.10
2018-12-16T16:00:55.986Z,79.00
2018-12-16T16:03:25.024Z,79.00
2018-12-16T16:05:54.141Z,79.00
2018-12-16T16:08:23.164Z,80.00
2018-12-16T16:10:52.848Z,79.20
2018-12-16T16:13:21.999Z,79.30
2018-12-16T16:15:51.091Z,79.30
2018-12-16T16:18:20.287Z,79.50
2018-12-16T16:20:49.399Z,79.30
2018-12-16T16:23:18.374Z,79.40
2018-12-16T16:25:47.407Z,78.90
2018-12-16T16:28:16.395Z,79.70
2018-12-16T16:30:45.392Z,79.50
2018-12-16T16:33:14.521Z,79.70
2018-12-16T16:35:43.590Z,79.70
2018-12-16T16:38:12.723Z,79.10
2018-12-16T16:40:41.940Z,80.40
2018-12-16T16:43:10.917Z,79.80
2018-12-16T16:45:40.035Z,79.80
2018-12-16T16:48:09.144Z,79.80
2018-12-16T16:50:38.190Z,79.70
2018-12-16T16:53:07.194Z,79.70
2018-12-16T16:55:36.231Z,79.70
2018-12-16T16:58:05.252Z,79.90
2018-12-16T17:00:34.454Z,79.90
2018-12-16T17:03:03.541Z,80.00
2018-12-16T17:05:32.559Z,80.00
2018-12-16T17:08:01.532Z,80.10
2018-12-16T17:10:30.522Z,80.10
2018-12-16T17:12:59.656Z,80.00
2018-12-16T17:15:28.716Z,80.30
2018-12-16T17:17:57.820Z,80.00
2018-12-16T17:20:28.955Z,80.00
2018-12-16T17:22:58.107Z,80.00
2018-12-16T17:25:27.314Z,80.20
2018-12-16T17:27:56.556Z,80.00
2018-12-16T17:30:25.725Z,80.00
2018-12-16T17:32:54.840Z,80.20
2018-12-16T17:35:23.897Z,80.20
2018-12-16T17:37:53.044Z,80.20
2018-12-16T17:40:22.179Z,80.00
2018-12-16T17:42:51.466Z,79.90
2018-12-16T17:45:20.536Z,79.90
2018-12-16T17:47:51.642Z,79.90
2018-12-16T17:50:20.732Z,80.00
2018-12-16T17:52:49.905Z,80.10
2018-12-16T17:55:18.921Z,80.10
2018-12-16T17:57:48.050Z,80.20
2018-12-16T18:00:17.309Z,80.10
2018-12-16T18:02:46.464Z,80.20
2018-12-16T18:05:15.621Z,80.10
2018-12-16T18:07:44.711Z,80.20
2018-12-16T18:10:13.801Z,80.30
2018-12-16T18:12:42.893Z,80.40
2018-12-16T18:15:13.428Z,80.30
2018-12-16T18:17:42.555Z,80.40
2018-12-16T18:20:11.826Z,80.30
2018-12-16T18:22:40.866Z,80.50
2018-12-16T18:25:09.847Z,80.60
2018-12-16T18:27:38.928Z,80.50
2018-12-16T18:30:09.460Z,80.70
2018-12-16T18:32:41.344Z,80.70
2018-12-16T18:35:10.371Z,80.70
2018-12-16T18:37:39.669Z,80.60
2018-12-16T18:40:08.696Z,80.60
2018-12-16T18:42:37.745Z,80.50
2018-12-16T18:45:07.043Z,80.50
2018-12-16T18:47:36.091Z,80.60
2018-12-16T18:50:06.891Z,80.70
2018-12-16T18:52:36.570Z,80.80
2018-12-16T18:55:08.146Z,80.70
2018-12-16T18:57:37.454Z,80.70
2018-12-16T19:00:09.303Z,80.80
2018-12-16T19:02:38.468Z,80.70
2018-12-16T19:05:07.683Z,80.70
2018-12-16T19:07:36.692Z,80.70
2018-12-16T19:10:06.880Z,80.80
2018-12-16T19:12:35.881Z,80.80
2018-12-16T19:15:06.463Z,80.80
2018-12-16T19:17:35.794Z,80.80
2018-12-16T19:20:05.210Z,80.70
2018-12-16T19:22:34.560Z,80.80
2018-12-16T19:25:03.723Z,80.80
2018-12-16T19:27:33.043Z,80.80
2018-12-16T19:30:02.079Z,80.90
2018-12-16T19:32:33.028Z,80.90
2018-12-16T19:35:02.202Z,81.00
2018-12-16T19:37:32.283Z,81.00
2018-12-16T19:40:01.419Z,80.90
2018-12-16T19:42:32.436Z,80.90
2018-12-16T19:45:01.494Z,80.90
2018-12-16T19:47:31.821Z,80.90
2018-12-16T19:50:00.869Z,80.90
2018-12-16T19:52:29.960Z,80.90
2018-12-16T19:54:59.330Z,80.90
2018-12-16T19:57:28.445Z,81.00
2018-12-16T19:59:57.445Z,81.00
2018-12-16T20:02:26.533Z,81.00
2018-12-16T20:05:00.994Z,81.10
2018-12-16T20:07:30.720Z,81.10
2018-12-16T20:10:00.152Z,81.30
2018-12-16T20:12:30.816Z,81.10
2018-12-16T20:14:59.929Z,81.30
2018-12-16T20:17:28.957Z,81.30
2018-12-16T20:19:58.201Z,81.30
2018-12-16T20:22:27.534Z,81.30
2018-12-16T20:24:56.874Z,81.40
2018-12-16T20:27:26.218Z,81.40
2018-12-16T20:29:55.456Z,81.40
2018-12-16T20:32:25.156Z,81.40
2018-12-16T20:35:01.295Z,81.40
2018-12-16T20:37:30.717Z,80.90
2018-12-16T20:40:00.927Z,81.40
2018-12-16T20:42:32.420Z,81.50
2018-12-16T20:45:01.656Z,81.70
2018-12-16T20:47:31.875Z,81.50
2018-12-16T20:50:00.878Z,81.50
2018-12-16T20:52:30.164Z,81.40
2018-12-16T20:54:59.401Z,81.50
2018-12-16T20:57:28.511Z,81.60
2018-12-16T20:59:57.555Z,81.50
2018-12-16T21:02:26.598Z,81.50
2018-12-16T21:04:55.583Z,81.60
2018-12-16T21:07:24.684Z,81.50
2018-12-16T21:09:53.830Z,81.50
2018-12-16T21:12:34.953Z,81.50
2018-12-16T21:15:09.723Z,81.50
2018-12-16T21:18:46.414Z,81.50
2018-12-16T21:21:15.806Z,81.50
2018-12-16T21:23:45.033Z,81.20
2018-12-16T21:26:14.107Z,81.50
2018-12-16T21:28:43.256Z,81.70
2018-12-16T21:31:12.332Z,81.70
2018-12-16T21:33:41.854Z,81.60
2018-12-16T21:36:10.994Z,81.60
2018-12-16T21:38:40.218Z,81.70
2018-12-16T21:41:09.308Z,81.70
2018-12-16T21:43:38.786Z,81.60
2018-12-16T21:46:08.118Z,81.60
2018-12-16T21:48:37.255Z,81.70
2018-12-16T21:51:06.543Z,81.80
2018-12-16T21:53:35.610Z,81.70
2018-12-16T21:56:04.627Z,81.60
2018-12-16T21:58:33.786Z,81.70
2018-12-16T22:01:02.860Z,81.80
2018-12-16T22:03:32.064Z,81.70
2018-12-16T22:06:01.047Z,81.70
2018-12-16T22:08:30.063Z,81.60
2018-12-16T22:10:59.079Z,81.70
2018-12-16T22:13:28.122Z,81.70
2018-12-16T22:15:57.153Z,81.70
2018-12-16T22:18:26.144Z,81.70
2018-12-16T22:20:55.139Z,81.80
2018-12-16T22:23:24.144Z,82.20
2018-12-16T22:25:53.197Z,82.70
2018-12-16T22:28:23.771Z,81.80
2018-12-16T22:30:53.368Z,81.90
2018-12-16T22:33:22.621Z,81.90
2018-12-16T22:35:51.653Z,82.10
2018-12-16T22:38:20.656Z,82.00
2018-12-16T22:40:49.811Z,82.00
2018-12-16T22:43:20.045Z,82.00
2018-12-16T22:45:49.375Z,82.00
2018-12-16T22:48:18.507Z,82.00
2018-12-16T22:50:48.463Z,82.00
2018-12-16T22:53:24.127Z,82.10
2018-12-16T22:55:53.751Z,82.10
2018-12-16T22:58:23.136Z,82.60
2018-12-16T23:00:58.018Z,82.10
2018-12-16T23:03:27.682Z,82.10
2018-12-16T23:05:56.842Z,82.10
2018-12-16T23:08:26.021Z,82.10
2018-12-16T23:10:55.161Z,82.10
2018-12-16T23:13:24.231Z,82.10
2018-12-16T23:15:53.270Z,82.10
2018-12-16T23:18:22.367Z,82.00
2018-12-16T23:20:51.425Z,82.00
2018-12-16T23:23:20.455Z,82.00
2018-12-16T23:25:49.633Z,82.00
2018-12-16T23:28:18.702Z,82.10
2018-12-16T23:30:47.716Z,82.50
2018-12-16T23:33:16.958Z,82.00
2018-12-16T23:35:46.415Z,82.00
2018-12-16T23:38:15.475Z,82.00
2018-12-16T23:40:44.496Z,82.00
2018-12-16T23:43:13.550Z,82.00
2018-12-16T23:45:42.600Z,82.20
2018-12-16T23:48:11.645Z,82.20
2018-12-16T23:50:47.330Z,82.10
2018-12-16T23:53:18.370Z,82.10
2018-12-16T23:55:47.616Z,82.10
2018-12-16T23:58:16.615Z,82.20
